sensor_id;sensor_type;location;lat;lon;timestamp;P1;durP1;ratioP1;P2;durP2;ratioP2
4391;SDS011;2210;51.938;8.488;2022-12-07T00:02:43;19.80;;;17.07;;
4391;SDS011;2210;51.938;8.488;2022-12-07T00:06:44;18.67;;;15.20;;
4391;SDS011;2210;51.938;8.488;2022-12-07T00:10:46;19.20;;;15.10;;
4391;SDS011;2210;51.938;8.488;2022-12-07T00:14:52;18.10;;;15.10;;
4391;SDS011;2210;51.938;8.488;2022-12-07T00:18:52;22.47;;;16.70;;
4391;SDS011;2210;51.938;8.488;2022-12-07T00:22:53;19.10;;;16.23;;
4391;SDS011;2210;51.938;8.488;2022-12-07T00:26:53;18.00;;;15.00;;
4391;SDS011;2210;51.938;8.488;2022-12-07T00:31:03;20.57;;;15.30;;
4391;SDS011;2210;51.938;8.488;2022-12-07T00:35:06;19.57;;;15.73;;
4391;SDS011;2210;51.938;8.488;2022-12-07T00:39:06;20.10;;;15.53;;
4391;SDS011;2210;51.938;8.488;2022-12-07T00:43:07;17.37;;;15.47;;
4391;SDS011;2210;51.938;8.488;2022-12-07T00:47:07;20.97;;;15.80;;
4391;SDS011;2210;51.938;8.488;2022-12-07T00:51:08;18.60;;;16.23;;
4391;SDS011;2210;51.938;8.488;2022-12-07T00:55:10;16.03;;;14.30;;
4391;SDS011;2210;51.938;8.488;2022-12-07T00:59:12;16.87;;;14.73;;
4391;SDS011;2210;51.938;8.488;2022-12-07T01:03:15;18.33;;;16.43;;
4391;SDS011;2210;51.938;8.488;2022-12-07T01:07:16;14.90;;;13.43;;
4391;SDS011;2210;51.938;8.488;2022-12-07T01:11:23;15.57;;;13.97;;
4391;SDS011;2210;51.938;8.488;2022-12-07T01:15:28;15.57;;;13.87;;
4391;SDS011;2210;51.938;8.488;2022-12-07T01:19:29;14.37;;;12.83;;
4391;SDS011;2210;51.938;8.488;2022-12-07T01:23:35;15.27;;;13.30;;
4391;SDS011;2210;51.938;8.488;2022-12-07T01:27:42;15.77;;;13.07;;
4391;SDS011;2210;51.938;8.488;2022-12-07T01:31:42;14.00;;;12.60;;
4391;SDS011;2210;51.938;8.488;2022-12-07T01:35:46;15.90;;;14.20;;
4391;SDS011;2210;51.938;8.488;2022-12-07T01:39:50;12.90;;;10.90;;
4391;SDS011;2210;51.938;8.488;2022-12-07T01:48:18;11.60;;;10.50;;
4391;SDS011;2210;51.938;8.488;2022-12-07T01:52:26;11.90;;;10.70;;
4391;SDS011;2210;51.938;8.488;2022-12-07T01:56:30;13.80;;;10.57;;
4391;SDS011;2210;51.938;8.488;2022-12-07T02:00:38;15.70;;;11.77;;
4391;SDS011;2210;51.938;8.488;2022-12-07T02:04:38;12.10;;;10.83;;
4391;SDS011;2210;51.938;8.488;2022-12-07T02:08:48;12.13;;;10.90;;
4391;SDS011;2210;51.938;8.488;2022-12-07T02:12:58;14.80;;;11.87;;
4391;SDS011;2210;51.938;8.488;2022-12-07T02:30:52;8.63;;;7.60;;
4391;SDS011;2210;51.938;8.488;2022-12-07T02:43:56;13.50;;;9.23;;
4391;SDS011;2210;51.938;8.488;2022-12-07T02:48:09;11.73;;;8.50;;
4391;SDS011;2210;51.938;8.488;2022-12-07T02:52:13;10.03;;;8.30;;
4391;SDS011;2210;51.938;8.488;2022-12-07T02:56:20;8.57;;;7.17;;
4391;SDS011;2210;51.938;8.488;2022-12-07T03:09:37;6.40;;;5.47;;
4391;SDS011;2210;51.938;8.488;2022-12-07T03:17:59;7.53;;;5.43;;
4391;SDS011;2210;51.938;8.488;2022-12-07T03:22:09;6.27;;;4.90;;
4391;SDS011;2210;51.938;8.488;2022-12-07T03:26:12;8.83;;;4.80;;
4391;SDS011;2210;51.938;8.488;2022-12-07T03:30:17;5.70;;;5.13;;
4391;SDS011;2210;51.938;8.488;2022-12-07T03:34:40;7.53;;;5.23;;
4391;SDS011;2210;51.938;8.488;2022-12-07T03:43:45;8.83;;;4.67;;
4391;SDS011;2210;51.938;8.488;2022-12-07T03:52:12;5.40;;;4.60;;
4391;SDS011;2210;51.938;8.488;2022-12-07T03:56:22;7.47;;;5.60;;
4391;SDS011;2210;51.938;8.488;2022-12-07T04:00:32;7.33;;;5.10;;
4391;SDS011;2210;51.938;8.488;2022-12-07T04:04:33;6.00;;;4.43;;
4391;SDS011;2210;51.938;8.488;2022-12-07T04:08:34;9.10;;;5.17;;
4391;SDS011;2210;51.938;8.488;2022-12-07T04:12:37;4.73;;;4.33;;
4391;SDS011;2210;51.938;8.488;2022-12-07T04:16:40;5.63;;;4.50;;
4391;SDS011;2210;51.938;8.488;2022-12-07T04:20:40;5.93;;;4.90;;
4391;SDS011;2210;51.938;8.488;2022-12-07T04:24:44;4.83;;;4.33;;
4391;SDS011;2210;51.938;8.488;2022-12-07T04:28:44;8.73;;;4.33;;
4391;SDS011;2210;51.938;8.488;2022-12-07T04:32:57;7.10;;;5.10;;
4391;SDS011;2210;51.938;8.488;2022-12-07T04:36:57;5.03;;;4.63;;
4391;SDS011;2210;51.938;8.488;2022-12-07T04:41:13;4.97;;;4.47;;
4391;SDS011;2210;51.938;8.488;2022-12-07T04:45:13;6.10;;;5.60;;
4391;SDS011;2210;51.938;8.488;2022-12-07T04:49:17;8.20;;;6.23;;
4391;SDS011;2210;51.938;8.488;2022-12-07T04:53:24;6.13;;;5.50;;
4391;SDS011;2210;51.938;8.488;2022-12-07T04:57:27;8.40;;;6.00;;
4391;SDS011;2210;51.938;8.488;2022-12-07T05:01:27;9.33;;;6.30;;
4391;SDS011;2210;51.938;8.488;2022-12-07T05:05:28;9.10;;;6.13;;
4391;SDS011;2210;51.938;8.488;2022-12-07T05:09:28;9.33;;;6.00;;
4391;SDS011;2210;51.938;8.488;2022-12-07T05:13:28;7.73;;;5.93;;
4391;SDS011;2210;51.938;8.488;2022-12-07T05:17:31;8.33;;;5.63;;
4391;SDS011;2210;51.938;8.488;2022-12-07T05:21:32;6.30;;;5.33;;
4391;SDS011;2210;51.938;8.488;2022-12-07T05:25:32;7.00;;;5.50;;
4391;SDS011;2210;51.938;8.488;2022-12-07T05:29:33;8.83;;;5.80;;
4391;SDS011;2210;51.938;8.488;2022-12-07T05:33:33;10.40;;;6.37;;
4391;SDS011;2210;51.938;8.488;2022-12-07T05:37:34;10.40;;;6.07;;
4391;SDS011;2210;51.938;8.488;2022-12-07T05:41:40;6.93;;;5.80;;
4391;SDS011;2210;51.938;8.488;2022-12-07T05:45:59;6.80;;;5.80;;
4391;SDS011;2210;51.938;8.488;2022-12-07T05:49:59;13.50;;;6.27;;
4391;SDS011;2210;51.938;8.488;2022-12-07T05:54:00;12.13;;;6.07;;
4391;SDS011;2210;51.938;8.488;2022-12-07T05:58:00;8.23;;;5.90;;
4391;SDS011;2210;51.938;8.488;2022-12-07T06:02:19;8.97;;;6.47;;
4391;SDS011;2210;51.938;8.488;2022-12-07T06:06:22;9.80;;;5.77;;
4391;SDS011;2210;51.938;8.488;2022-12-07T06:10:22;8.13;;;6.07;;
4391;SDS011;2210;51.938;8.488;2022-12-07T06:14:26;11.17;;;6.47;;
4391;SDS011;2210;51.938;8.488;2022-12-07T06:18:26;7.80;;;5.23;;
4391;SDS011;2210;51.938;8.488;2022-12-07T06:22:26;7.25;;;6.25;;
4391;SDS011;2210;51.938;8.488;2022-12-07T06:26:32;9.50;;;6.47;;
4391;SDS011;2210;51.938;8.488;2022-12-07T06:30:36;9.87;;;6.60;;
4391;SDS011;2210;51.938;8.488;2022-12-07T06:34:36;10.30;;;6.60;;
4391;SDS011;2210;51.938;8.488;2022-12-07T06:38:36;12.80;;;7.03;;
4391;SDS011;2210;51.938;8.488;2022-12-07T06:42:43;6.90;;;6.20;;
4391;SDS011;2210;51.938;8.488;2022-12-07T06:46:46;9.37;;;6.53;;
4391;SDS011;2210;51.938;8.488;2022-12-07T06:50:49;9.37;;;6.63;;
4391;SDS011;2210;51.938;8.488;2022-12-07T06:54:50;11.63;;;7.00;;
4391;SDS011;2210;51.938;8.488;2022-12-07T06:58:59;6.53;;;5.93;;
4391;SDS011;2210;51.938;8.488;2022-12-07T07:02:59;7.53;;;5.90;;
4391;SDS011;2210;51.938;8.488;2022-12-07T07:07:00;7.47;;;6.67;;
4391;SDS011;2210;51.938;8.488;2022-12-07T07:11:00;8.50;;;5.80;;
4391;SDS011;2210;51.938;8.488;2022-12-07T07:15:01;10.40;;;6.97;;
4391;SDS011;2210;51.938;8.488;2022-12-07T07:19:01;13.30;;;7.03;;
4391;SDS011;2210;51.938;8.488;2022-12-07T07:23:01;11.57;;;6.23;;
4391;SDS011;2210;51.938;8.488;2022-12-07T07:27:05;10.07;;;7.67;;
4391;SDS011;2210;51.938;8.488;2022-12-07T07:31:05;9.47;;;7.30;;
4391;SDS011;2210;51.938;8.488;2022-12-07T07:35:05;9.03;;;6.30;;
4391;SDS011;2210;51.938;8.488;2022-12-07T07:39:06;10.73;;;7.00;;
4391;SDS011;2210;51.938;8.488;2022-12-07T07:43:18;7.47;;;6.67;;
4391;SDS011;2210;51.938;8.488;2022-12-07T07:47:31;9.73;;;6.27;;
4391;SDS011;2210;51.938;8.488;2022-12-07T07:51:34;9.53;;;6.40;;
4391;SDS011;2210;51.938;8.488;2022-12-07T07:59:46;10.03;;;7.33;;
4391;SDS011;2210;51.938;8.488;2022-12-07T08:03:47;14.30;;;7.87;;
4391;SDS011;2210;51.938;8.488;2022-12-07T08:07:47;11.47;;;7.60;;
4391;SDS011;2210;51.938;8.488;2022-12-07T08:11:47;11.70;;;7.43;;
4391;SDS011;2210;51.938;8.488;2022-12-07T08:15:48;12.30;;;8.90;;
4391;SDS011;2210;51.938;8.488;2022-12-07T08:19:54;8.30;;;6.77;;
4391;SDS011;2210;51.938;8.488;2022-12-07T08:23:57;8.70;;;6.93;;
4391;SDS011;2210;51.938;8.488;2022-12-07T08:28:04;7.87;;;5.50;;
4391;SDS011;2210;51.938;8.488;2022-12-07T08:32:04;9.67;;;5.60;;
4391;SDS011;2210;51.938;8.488;2022-12-07T08:36:16;11.73;;;5.67;;
4391;SDS011;2210;51.938;8.488;2022-12-07T08:40:20;5.60;;;4.67;;
4391;SDS011;2210;51.938;8.488;2022-12-07T08:44:21;7.57;;;6.20;;
4391;SDS011;2210;51.938;8.488;2022-12-07T08:48:24;9.07;;;5.80;;
4391;SDS011;2210;51.938;8.488;2022-12-07T08:52:25;6.53;;;5.17;;
4391;SDS011;2210;51.938;8.488;2022-12-07T08:56:31;5.90;;;5.30;;
4391;SDS011;2210;51.938;8.488;2022-12-07T09:00:38;8.10;;;5.23;;
4391;SDS011;2210;51.938;8.488;2022-12-07T09:04:38;7.07;;;4.73;;
4391;SDS011;2210;51.938;8.488;2022-12-07T09:08:40;6.27;;;4.60;;
4391;SDS011;2210;51.938;8.488;2022-12-07T09:12:48;6.47;;;5.30;;
4391;SDS011;2210;51.938;8.488;2022-12-07T09:16:49;8.60;;;5.60;;
4391;SDS011;2210;51.938;8.488;2022-12-07T09:20:50;8.90;;;6.50;;
4391;SDS011;2210;51.938;8.488;2022-12-07T09:24:54;7.03;;;5.90;;
4391;SDS011;2210;51.938;8.488;2022-12-07T09:28:54;7.30;;;6.10;;
4391;SDS011;2210;51.938;8.488;2022-12-07T09:32:57;6.73;;;4.97;;
4391;SDS011;2210;51.938;8.488;2022-12-07T09:37:01;10.60;;;5.10;;
4391;SDS011;2210;51.938;8.488;2022-12-07T09:41:06;7.00;;;4.77;;
4391;SDS011;2210;51.938;8.488;2022-12-07T09:45:10;8.60;;;5.00;;
4391;SDS011;2210;51.938;8.488;2022-12-07T09:49:20;7.40;;;4.17;;
4391;SDS011;2210;51.938;8.488;2022-12-07T09:53:24;3.97;;;3.33;;
4391;SDS011;2210;51.938;8.488;2022-12-07T09:57:29;7.23;;;4.73;;
4391;SDS011;2210;51.938;8.488;2022-12-07T10:01:32;8.20;;;3.10;;
4391;SDS011;2210;51.938;8.488;2022-12-07T10:05:37;17.63;;;3.20;;
4391;SDS011;2210;51.938;8.488;2022-12-07T10:09:42;7.60;;;3.40;;
4391;SDS011;2210;51.938;8.488;2022-12-07T10:13:44;6.77;;;3.03;;
4391;SDS011;2210;51.938;8.488;2022-12-07T10:17:52;8.93;;;2.80;;
4391;SDS011;2210;51.938;8.488;2022-12-07T10:26:19;5.17;;;3.53;;
4391;SDS011;2210;51.938;8.488;2022-12-07T10:30:32;9.70;;;3.10;;
4391;SDS011;2210;51.938;8.488;2022-12-07T10:34:37;5.73;;;3.23;;
4391;SDS011;2210;51.938;8.488;2022-12-07T10:38:37;8.20;;;3.47;;
4391;SDS011;2210;51.938;8.488;2022-12-07T10:47:31;10.37;;;3.97;;
4391;SDS011;2210;51.938;8.488;2022-12-07T11:40:35;5.37;;;3.27;;
4391;SDS011;2210;51.938;8.488;2022-12-07T11:44:39;11.90;;;3.07;;
4391;SDS011;2210;51.938;8.488;2022-12-07T11:49:10;6.70;;;2.63;;
4391;SDS011;2210;51.938;8.488;2022-12-07T11:54:20;3.33;;;2.57;;
4391;SDS011;2210;51.938;8.488;2022-12-07T11:58:03;7.63;;;2.30;;
4391;SDS011;2210;51.938;8.488;2022-12-07T12:02:24;7.03;;;2.10;;
4391;SDS011;2210;51.938;8.488;2022-12-07T12:06:31;5.40;;;2.40;;
4391;SDS011;2210;51.938;8.488;2022-12-07T12:10:41;3.53;;;1.80;;
4391;SDS011;2210;51.938;8.488;2022-12-07T12:19:35;2.23;;;2.03;;
4391;SDS011;2210;51.938;8.488;2022-12-07T12:24:00;4.37;;;1.87;;
4391;SDS011;2210;51.938;8.488;2022-12-07T12:32:41;3.07;;;1.57;;
4391;SDS011;2210;51.938;8.488;2022-12-07T12:36:47;2.20;;;1.67;;
4391;SDS011;2210;51.938;8.488;2022-12-07T12:40:48;3.70;;;2.20;;
4391;SDS011;2210;51.938;8.488;2022-12-07T12:53:46;8.30;;;2.50;;
4391;SDS011;2210;51.938;8.488;2022-12-07T13:02:35;5.13;;;1.50;;
4391;SDS011;2210;51.938;8.488;2022-12-07T13:06:40;2.83;;;1.57;;
4391;SDS011;2210;51.938;8.488;2022-12-07T13:10:43;6.50;;;2.00;;
4391;SDS011;2210;51.938;8.488;2022-12-07T13:14:52;4.50;;;1.93;;
4391;SDS011;2210;51.938;8.488;2022-12-07T13:18:54;5.53;;;1.97;;
4391;SDS011;2210;51.938;8.488;2022-12-07T13:22:55;3.33;;;1.83;;
4391;SDS011;2210;51.938;8.488;2022-12-07T13:27:14;6.90;;;2.63;;
4391;SDS011;2210;51.938;8.488;2022-12-07T13:36:00;3.23;;;1.90;;
4391;SDS011;2210;51.938;8.488;2022-12-07T13:40:01;6.00;;;1.73;;
4391;SDS011;2210;51.938;8.488;2022-12-07T13:44:18;4.00;;;1.93;;
4391;SDS011;2210;51.938;8.488;2022-12-07T13:48:21;2.37;;;1.77;;
4391;SDS011;2210;51.938;8.488;2022-12-07T13:52:43;5.00;;;2.67;;
4391;SDS011;2210;51.938;8.488;2022-12-07T13:56:48;4.77;;;2.60;;
4391;SDS011;2210;51.938;8.488;2022-12-07T14:00:54;2.77;;;2.03;;
4391;SDS011;2210;51.938;8.488;2022-12-07T14:09:25;4.90;;;2.10;;
4391;SDS011;2210;51.938;8.488;2022-12-07T14:13:33;3.37;;;2.10;;
4391;SDS011;2210;51.938;8.488;2022-12-07T14:17:49;5.67;;;2.40;;
4391;SDS011;2210;51.938;8.488;2022-12-07T14:22:07;7.67;;;3.10;;
4391;SDS011;2210;51.938;8.488;2022-12-07T14:26:12;7.63;;;2.43;;
4391;SDS011;2210;51.938;8.488;2022-12-07T14:30:16;5.20;;;2.90;;
4391;SDS011;2210;51.938;8.488;2022-12-07T14:34:21;5.20;;;2.60;;
4391;SDS011;2210;51.938;8.488;2022-12-07T14:38:22;3.37;;;1.80;;
4391;SDS011;2210;51.938;8.488;2022-12-07T14:42:23;4.03;;;2.40;;
4391;SDS011;2210;51.938;8.488;2022-12-07T14:46:26;8.20;;;2.50;;
4391;SDS011;2210;51.938;8.488;2022-12-07T14:50:26;7.20;;;2.13;;
4391;SDS011;2210;51.938;8.488;2022-12-07T14:54:27;6.57;;;2.33;;
4391;SDS011;2210;51.938;8.488;2022-12-07T14:58:31;7.63;;;2.30;;
4391;SDS011;2210;51.938;8.488;2022-12-07T15:02:32;4.17;;;2.60;;
4391;SDS011;2210;51.938;8.488;2022-12-07T15:06:32;3.60;;;1.70;;
4391;SDS011;2210;51.938;8.488;2022-12-07T15:10:33;4.60;;;2.23;;
4391;SDS011;2210;51.938;8.488;2022-12-07T15:14:33;4.40;;;1.97;;
4391;SDS011;2210;51.938;8.488;2022-12-07T15:18:34;5.70;;;1.80;;
4391;SDS011;2210;51.938;8.488;2022-12-07T15:22:34;5.40;;;2.10;;
4391;SDS011;2210;51.938;8.488;2022-12-07T15:26:34;3.23;;;1.60;;
4391;SDS011;2210;51.938;8.488;2022-12-07T15:30:36;9.53;;;2.33;;
4391;SDS011;2210;51.938;8.488;2022-12-07T15:34:37;3.83;;;1.73;;
4391;SDS011;2210;51.938;8.488;2022-12-07T15:38:37;4.17;;;2.47;;
4391;SDS011;2210;51.938;8.488;2022-12-07T15:42:38;8.80;;;2.80;;
4391;SDS011;2210;51.938;8.488;2022-12-07T15:46:39;2.90;;;2.30;;
4391;SDS011;2210;51.938;8.488;2022-12-07T15:50:41;4.03;;;2.43;;
4391;SDS011;2210;51.938;8.488;2022-12-07T15:54:41;4.77;;;2.20;;
4391;SDS011;2210;51.938;8.488;2022-12-07T15:58:41;5.97;;;2.30;;
4391;SDS011;2210;51.938;8.488;2022-12-07T16:02:42;6.60;;;2.43;;
4391;SDS011;2210;51.938;8.488;2022-12-07T16:06:42;2.00;;;1.80;;
4391;SDS011;2210;51.938;8.488;2022-12-07T16:10:42;17.67;;;2.80;;
4391;SDS011;2210;51.938;8.488;2022-12-07T16:14:43;6.80;;;2.30;;
4391;SDS011;2210;51.938;8.488;2022-12-07T16:18:44;4.53;;;2.13;;
4391;SDS011;2210;51.938;8.488;2022-12-07T16:22:45;5.10;;;2.33;;
4391;SDS011;2210;51.938;8.488;2022-12-07T16:26:46;3.93;;;2.13;;
4391;SDS011;2210;51.938;8.488;2022-12-07T16:30:46;4.63;;;2.50;;
4391;SDS011;2210;51.938;8.488;2022-12-07T16:34:46;7.63;;;2.60;;
4391;SDS011;2210;51.938;8.488;2022-12-07T16:38:47;5.30;;;2.70;;
4391;SDS011;2210;51.938;8.488;2022-12-07T16:42:48;6.33;;;2.17;;
4391;SDS011;2210;51.938;8.488;2022-12-07T16:46:48;8.17;;;2.57;;
4391;SDS011;2210;51.938;8.488;2022-12-07T16:50:48;9.13;;;2.80;;
4391;SDS011;2210;51.938;8.488;2022-12-07T16:54:49;6.33;;;2.40;;
4391;SDS011;2210;51.938;8.488;2022-12-07T16:58:49;3.57;;;1.80;;
4391;SDS011;2210;51.938;8.488;2022-12-07T17:02:59;8.07;;;3.70;;
4391;SDS011;2210;51.938;8.488;2022-12-07T17:07:05;7.67;;;3.43;;
4391;SDS011;2210;51.938;8.488;2022-12-07T17:15:59;4.10;;;2.17;;
4391;SDS011;2210;51.938;8.488;2022-12-07T17:20:02;9.53;;;3.13;;
4391;SDS011;2210;51.938;8.488;2022-12-07T17:24:04;5.47;;;2.50;;
4391;SDS011;2210;51.938;8.488;2022-12-07T17:28:07;2.63;;;2.23;;
4391;SDS011;2210;51.938;8.488;2022-12-07T17:32:07;3.00;;;2.50;;
4391;SDS011;2210;51.938;8.488;2022-12-07T17:36:11;2.70;;;2.10;;
4391;SDS011;2210;51.938;8.488;2022-12-07T17:40:16;3.47;;;2.23;;
4391;SDS011;2210;51.938;8.488;2022-12-07T17:44:18;3.27;;;2.10;;
4391;SDS011;2210;51.938;8.488;2022-12-07T17:48:20;9.77;;;2.47;;
4391;SDS011;2210;51.938;8.488;2022-12-07T17:52:20;13.13;;;4.83;;
4391;SDS011;2210;51.938;8.488;2022-12-07T17:56:48;7.00;;;3.03;;
4391;SDS011;2210;51.938;8.488;2022-12-07T18:01:01;4.57;;;2.67;;
4391;SDS011;2210;51.938;8.488;2022-12-07T18:05:22;5.97;;;2.70;;
4391;SDS011;2210;51.938;8.488;2022-12-07T18:09:22;4.80;;;2.50;;
4391;SDS011;2210;51.938;8.488;2022-12-07T18:13:23;6.47;;;3.23;;
4391;SDS011;2210;51.938;8.488;2022-12-07T18:17:38;10.50;;;8.47;;
4391;SDS011;2210;51.938;8.488;2022-12-07T18:21:38;10.93;;;5.90;;
4391;SDS011;2210;51.938;8.488;2022-12-07T18:25:39;14.90;;;8.00;;
4391;SDS011;2210;51.938;8.488;2022-12-07T18:29:42;9.80;;;6.63;;
4391;SDS011;2210;51.938;8.488;2022-12-07T18:33:54;10.40;;;5.97;;
4391;SDS011;2210;51.938;8.488;2022-12-07T18:37:55;10.83;;;7.70;;
4391;SDS011;2210;51.938;8.488;2022-12-07T18:41:59;11.53;;;6.10;;
4391;SDS011;2210;51.938;8.488;2022-12-07T18:45:59;10.70;;;5.70;;
4391;SDS011;2210;51.938;8.488;2022-12-07T18:49:59;7.93;;;6.47;;
4391;SDS011;2210;51.938;8.488;2022-12-07T18:54:00;6.60;;;6.00;;
4391;SDS011;2210;51.938;8.488;2022-12-07T18:58:01;7.07;;;5.30;;
4391;SDS011;2210;51.938;8.488;2022-12-07T19:02:01;6.97;;;5.43;;
4391;SDS011;2210;51.938;8.488;2022-12-07T19:06:07;6.60;;;5.60;;
4391;SDS011;2210;51.938;8.488;2022-12-07T19:10:14;7.17;;;5.33;;
4391;SDS011;2210;51.938;8.488;2022-12-07T19:14:36;8.73;;;6.40;;
4391;SDS011;2210;51.938;8.488;2022-12-07T19:18:37;7.23;;;6.60;;
4391;SDS011;2210;51.938;8.488;2022-12-07T19:22:37;9.83;;;7.60;;
4391;SDS011;2210;51.938;8.488;2022-12-07T19:26:40;9.30;;;7.67;;
4391;SDS011;2210;51.938;8.488;2022-12-07T19:30:41;9.40;;;7.90;;
4391;SDS011;2210;51.938;8.488;2022-12-07T19:34:47;9.90;;;8.53;;
4391;SDS011;2210;51.938;8.488;2022-12-07T19:38:48;10.20;;;7.80;;
4391;SDS011;2210;51.938;8.488;2022-12-07T19:42:55;9.67;;;6.87;;
4391;SDS011;2210;51.938;8.488;2022-12-07T19:46:56;9.50;;;7.10;;
4391;SDS011;2210;51.938;8.488;2022-12-07T19:51:05;7.53;;;6.20;;
4391;SDS011;2210;51.938;8.488;2022-12-07T19:55:17;8.50;;;7.03;;
4391;SDS011;2210;51.938;8.488;2022-12-07T19:59:25;7.33;;;5.60;;
4391;SDS011;2210;51.938;8.488;2022-12-07T20:03:30;7.70;;;6.40;;
4391;SDS011;2210;51.938;8.488;2022-12-07T20:07:40;7.17;;;5.50;;
4391;SDS011;2210;51.938;8.488;2022-12-07T20:11:40;6.20;;;5.40;;
4391;SDS011;2210;51.938;8.488;2022-12-07T20:16:05;7.73;;;5.70;;
4391;SDS011;2210;51.938;8.488;2022-12-07T20:20:12;6.43;;;5.40;;
4391;SDS011;2210;51.938;8.488;2022-12-07T20:24:13;6.37;;;5.60;;
4391;SDS011;2210;51.938;8.488;2022-12-07T20:28:19;5.57;;;4.80;;
4391;SDS011;2210;51.938;8.488;2022-12-07T20:32:20;6.53;;;5.83;;
4391;SDS011;2210;51.938;8.488;2022-12-07T20:36:26;8.10;;;6.30;;
4391;SDS011;2210;51.938;8.488;2022-12-07T20:40:26;8.33;;;6.10;;
4391;SDS011;2210;51.938;8.488;2022-12-07T20:44:27;8.03;;;6.47;;
4391;SDS011;2210;51.938;8.488;2022-12-07T20:48:27;8.20;;;6.50;;
4391;SDS011;2210;51.938;8.488;2022-12-07T20:52:30;10.53;;;7.30;;
4391;SDS011;2210;51.938;8.488;2022-12-07T20:56:33;7.07;;;6.33;;
4391;SDS011;2210;51.938;8.488;2022-12-07T21:00:35;9.53;;;6.90;;
4391;SDS011;2210;51.938;8.488;2022-12-07T21:04:39;8.47;;;6.90;;
4391;SDS011;2210;51.938;8.488;2022-12-07T21:08:46;8.40;;;7.07;;
4391;SDS011;2210;51.938;8.488;2022-12-07T21:12:48;9.57;;;6.63;;
4391;SDS011;2210;51.938;8.488;2022-12-07T21:16:48;7.20;;;6.37;;
4391;SDS011;2210;51.938;8.488;2022-12-07T21:20:52;6.67;;;5.47;;
4391;SDS011;2210;51.938;8.488;2022-12-07T21:24:52;6.80;;;6.10;;
4391;SDS011;2210;51.938;8.488;2022-12-07T21:28:53;6.57;;;5.97;;
4391;SDS011;2210;51.938;8.488;2022-12-07T21:32:53;12.33;;;6.70;;
4391;SDS011;2210;51.938;8.488;2022-12-07T21:36:53;7.60;;;6.80;;
4391;SDS011;2210;51.938;8.488;2022-12-07T21:40:54;8.93;;;6.60;;
4391;SDS011;2210;51.938;8.488;2022-12-07T21:45:09;8.90;;;6.57;;
4391;SDS011;2210;51.938;8.488;2022-12-07T21:49:16;9.70;;;7.60;;
4391;SDS011;2210;51.938;8.488;2022-12-07T21:53:22;9.27;;;7.17;;
4391;SDS011;2210;51.938;8.488;2022-12-07T21:57:23;6.90;;;5.80;;
4391;SDS011;2210;51.938;8.488;2022-12-07T22:01:27;7.13;;;5.93;;
4391;SDS011;2210;51.938;8.488;2022-12-07T22:05:32;7.47;;;6.70;;
4391;SDS011;2210;51.938;8.488;2022-12-07T22:09:36;9.40;;;7.27;;
4391;SDS011;2210;51.938;8.488;2022-12-07T22:13:36;8.97;;;7.57;;
4391;SDS011;2210;51.938;8.488;2022-12-07T22:17:55;10.53;;;8.00;;
4391;SDS011;2210;51.938;8.488;2022-12-07T22:22:12;12.90;;;9.03;;
4391;SDS011;2210;51.938;8.488;2022-12-07T22:26:19;13.53;;;8.37;;
4391;SDS011;2210;51.938;8.488;2022-12-07T22:30:23;8.93;;;7.73;;
4391;SDS011;2210;51.938;8.488;2022-12-07T22:34:23;7.90;;;6.67;;
4391;SDS011;2210;51.938;8.488;2022-12-07T22:38:27;7.20;;;6.20;;
4391;SDS011;2210;51.938;8.488;2022-12-07T22:42:28;13.87;;;7.20;;
4391;SDS011;2210;51.938;8.488;2022-12-07T22:46:28;9.50;;;7.70;;
4391;SDS011;2210;51.938;8.488;2022-12-07T22:50:28;11.47;;;8.50;;
4391;SDS011;2210;51.938;8.488;2022-12-07T22:54:28;14.50;;;9.90;;
4391;SDS011;2210;51.938;8.488;2022-12-07T22:58:29;10.43;;;9.40;;
4391;SDS011;2210;51.938;8.488;2022-12-07T23:02:32;15.53;;;10.30;;
4391;SDS011;2210;51.938;8.488;2022-12-07T23:06:33;11.17;;;9.60;;
4391;SDS011;2210;51.938;8.488;2022-12-07T23:10:35;11.33;;;9.40;;
4391;SDS011;2210;51.938;8.488;2022-12-07T23:14:36;8.53;;;7.73;;
4391;SDS011;2210;51.938;8.488;2022-12-07T23:18:40;11.43;;;7.30;;
4391;SDS011;2210;51.938;8.488;2022-12-07T23:22:43;7.80;;;7.10;;
4391;SDS011;2210;51.938;8.488;2022-12-07T23:26:51;8.40;;;7.33;;
4391;SDS011;2210;51.938;8.488;2022-12-07T23:30:51;11.33;;;6.70;;
4391;SDS011;2210;51.938;8.488;2022-12-07T23:34:51;8.03;;;7.30;;
4391;SDS011;2210;51.938;8.488;2022-12-07T23:38:52;8.60;;;6.57;;
4391;SDS011;2210;51.938;8.488;2022-12-07T23:42:55;7.63;;;6.83;;
4391;SDS011;2210;51.938;8.488;2022-12-07T23:46:56;13.13;;;7.10;;
4391;SDS011;2210;51.938;8.488;2022-12-07T23:50:59;8.10;;;6.80;;
4391;SDS011;2210;51.938;8.488;2022-12-07T23:54:59;7.93;;;7.10;;
4391;SDS011;2210;51.938;8.488;2022-12-07T23:59:12;11.37;;;8.83;;
